createdAt,value
2018-04-18T00:00:58.326Z,39.30
2018-04-18T00:03:25.679Z,37.60
2018-04-18T00:05:53.003Z,39.20
2018-04-18T00:10:49.610Z,38.50
2018-04-18T00:13:17.711Z,41.60
2018-04-18T00:15:45.038Z,39.80
2018-04-18T00:18:13.206Z,40.90
2018-04-18T00:20:40.583Z,40.80
2018-04-18T00:25:37.382Z,38.90
2018-04-18T00:28:04.701Z,37.30
2018-04-18T00:30:32.046Z,39.20
2018-04-18T00:35:28.351Z,40.80
2018-04-18T00:37:55.683Z,38.70
2018-04-18T00:40:23.253Z,41.30
2018-04-18T00:42:50.794Z,39.30
2018-04-18T00:45:18.179Z,37.50
2018-04-18T00:50:14.623Z,38.20
2018-04-18T00:52:42.789Z,38.70
2018-04-18T00:55:10.870Z,39.40
2018-04-18T00:57:38.747Z,41.90
2018-04-18T01:00:06.083Z,40.30
2018-04-18T01:02:34.194Z,39.60
2018-04-18T01:07:30.110Z,41.30
2018-04-18T01:09:57.523Z,39.10
2018-04-18T01:12:24.855Z,39.90
2018-04-18T01:14:52.194Z,40.60
2018-04-18T01:17:20.330Z,41.80
2018-04-18T01:19:47.778Z,40.40
2018-04-18T01:22:15.902Z,40.80
2018-04-18T01:24:43.315Z,44.30
2018-04-18T01:29:38.942Z,39.60
2018-04-18T01:32:06.610Z,38.80
2018-04-18T01:34:33.990Z,40.30
2018-04-18T01:41:58.638Z,42.30
2018-04-18T01:46:54.258Z,42.30
2018-04-18T01:51:50.639Z,41.30
2018-04-18T01:54:18.699Z,40.60
2018-04-18T01:56:46.825Z,41.80
2018-04-18T01:59:14.914Z,43.20
2018-04-18T02:01:43.047Z,43.80
2018-04-18T02:06:39.260Z,42.00
2018-04-18T02:11:35.749Z,43.80
2018-04-18T02:14:03.110Z,44.80
2018-04-18T02:16:30.438Z,43.40
2018-04-18T02:18:57.930Z,41.30
2018-04-18T02:21:26.022Z,40.60
2018-04-18T02:26:22.678Z,41.20
2018-04-18T02:28:50.062Z,40.40
2018-04-18T02:31:18.251Z,40.80
2018-04-18T02:33:45.619Z,41.00
2018-04-18T02:38:42.310Z,42.10
2018-04-18T02:46:07.035Z,41.50
2018-04-18T02:48:34.386Z,41.00
2018-04-18T02:51:02.439Z,40.40
2018-04-18T02:53:29.790Z,39.70
2018-04-18T02:55:57.140Z,39.20
2018-04-18T02:58:25.319Z,39.60
2018-04-18T03:03:21.827Z,39.60
2018-04-18T03:08:17.495Z,39.90
2018-04-18T03:10:45.511Z,40.00
2018-04-18T03:13:13.050Z,40.40
2018-04-18T03:15:41.162Z,38.00
2018-04-18T03:18:08.510Z,38.20
2018-04-18T03:20:36.601Z,40.20
2018-04-18T03:23:03.939Z,39.20
2018-04-18T03:25:32.052Z,39.70
2018-04-18T03:30:27.770Z,40.80
2018-04-18T03:32:55.231Z,40.10
2018-04-18T03:37:50.843Z,41.70
2018-04-18T03:40:18.942Z,41.00
2018-04-18T03:42:46.622Z,40.30
2018-04-18T03:47:42.480Z,39.50
2018-04-18T03:52:39.085Z,39.80
2018-04-18T03:55:06.407Z,40.10
2018-04-18T04:02:30.382Z,39.90
2018-04-18T04:07:26.099Z,38.30
2018-04-18T04:12:21.716Z,39.00
2018-04-18T04:14:49.039Z,39.40
2018-04-18T04:17:29.319Z,39.10
2018-04-18T04:22:43.045Z,39.30
2018-04-18T04:25:10.286Z,39.30
2018-04-18T04:30:05.923Z,38.80
2018-04-18T04:32:33.718Z,38.10
2018-04-18T04:35:01.095Z,38.40
2018-04-18T04:42:26.004Z,40.10
2018-04-18T04:44:53.417Z,38.60
2018-04-18T04:47:20.703Z,39.20
2018-04-18T04:49:48.072Z,40.30
2018-04-18T04:54:44.937Z,39.30
2018-04-18T04:57:13.238Z,40.70
2018-04-18T04:59:40.844Z,40.40
2018-04-18T05:02:08.193Z,39.50
2018-04-18T05:04:36.342Z,38.90
2018-04-18T05:07:03.726Z,39.80
2018-04-18T05:09:31.848Z,40.30
2018-04-18T05:14:27.805Z,38.00
2018-04-18T05:16:55.165Z,38.90
2018-04-18T05:19:22.526Z,38.90
2018-04-18T05:21:50.020Z,39.00
2018-04-18T05:26:45.619Z,38.40
2018-04-18T05:29:13.714Z,38.90
2018-04-18T05:31:41.071Z,40.30
2018-04-18T05:36:37.614Z,40.00
2018-04-18T05:39:05.777Z,37.30
2018-04-18T05:44:02.247Z,38.00
2018-04-18T05:48:58.630Z,35.90
2018-04-18T05:51:26.659Z,38.10
2018-04-18T05:53:54.730Z,39.20
2018-04-18T05:56:22.088Z,38.20
2018-04-18T05:58:50.174Z,38.00
2018-04-18T06:03:46.563Z,38.60
2018-04-18T06:06:13.987Z,37.00
2018-04-18T06:13:37.953Z,39.70
2018-04-18T06:16:05.311Z,40.70
2018-04-18T06:18:32.671Z,39.70
2018-04-18T06:21:00.020Z,38.90
2018-04-18T06:28:24.743Z,37.10
2018-04-18T06:33:21.166Z,37.30
2018-04-18T06:38:16.851Z,36.80
2018-04-18T06:40:44.187Z,36.60
2018-04-18T06:43:11.530Z,36.80
2018-04-18T06:45:39.801Z,36.00
2018-04-18T06:48:07.473Z,35.90
2018-04-18T06:50:34.834Z,35.80
2018-04-18T06:53:02.319Z,35.50
2018-04-18T07:00:26.312Z,33.80
2018-04-18T07:05:21.922Z,33.90
2018-04-18T07:12:46.233Z,34.90
2018-04-18T07:15:13.752Z,33.90
2018-04-18T07:17:41.890Z,34.10
2018-04-18T07:25:05.771Z,34.00
2018-04-18T07:27:34.030Z,33.70
2018-04-18T07:30:02.115Z,33.30
2018-04-18T07:32:29.491Z,33.20
2018-04-18T07:34:57.594Z,33.20
2018-04-18T07:37:25.774Z,32.80
2018-04-18T07:39:53.137Z,32.40
2018-04-18T07:42:20.471Z,32.30
2018-04-18T07:44:48.550Z,32.10
2018-04-18T07:47:16.019Z,31.90
2018-04-18T07:49:44.175Z,30.90
2018-04-18T07:52:12.391Z,32.00
2018-04-18T07:57:08.285Z,31.90
2018-04-18T07:59:35.744Z,31.80
2018-04-18T08:02:03.827Z,30.60
2018-04-18T08:04:31.589Z,31.10
2018-04-18T08:06:59.660Z,30.80
2018-04-18T08:09:27.069Z,30.80
2018-04-18T08:14:22.722Z,30.70
2018-04-18T08:16:50.837Z,30.50
2018-04-18T08:21:46.553Z,29.40
2018-04-18T08:26:42.921Z,28.50
2018-04-18T08:29:11.100Z,29.40
2018-04-18T08:31:38.490Z,29.40
2018-04-18T08:34:06.560Z,29.30
2018-04-18T08:36:34.202Z,29.30
2018-04-18T08:39:01.679Z,29.30
2018-04-18T08:41:30.088Z,29.10
2018-04-18T08:43:57.534Z,28.20
2018-04-18T08:48:53.461Z,28.90
2018-04-18T08:51:21.584Z,28.80
2018-04-18T08:53:48.973Z,28.30
2018-04-18T08:56:16.330Z,28.20
2018-04-18T08:58:44.349Z,26.90
2018-04-18T09:01:11.722Z,26.00
2018-04-18T09:03:39.803Z,25.90
2018-04-18T09:06:07.175Z,26.90
2018-04-18T09:08:35.331Z,24.90
2018-04-18T09:11:02.728Z,23.50
2018-04-18T09:13:30.104Z,24.70
2018-04-18T09:15:57.451Z,24.40
2018-04-18T09:18:24.842Z,24.00
2018-04-18T09:20:52.943Z,23.10
2018-04-18T09:25:48.719Z,23.20
2018-04-18T09:28:16.834Z,22.80
2018-04-18T09:30:44.178Z,23.70
2018-04-18T09:35:39.855Z,22.50
2018-04-18T09:40:35.598Z,22.40
2018-04-18T09:45:31.375Z,24.00
2018-04-18T09:50:27.108Z,24.30
2018-04-18T09:52:54.440Z,24.00
2018-04-18T09:55:22.610Z,23.70
2018-04-18T10:00:18.353Z,24.40
2018-04-18T10:02:51.909Z,22.70
2018-04-18T10:07:48.358Z,22.50
2018-04-18T10:15:12.854Z,21.30
2018-04-18T10:22:37.614Z,21.50
2018-04-18T10:25:04.934Z,19.90
2018-04-18T10:30:02.004Z,19.00
2018-04-18T10:32:30.093Z,18.80
2018-04-18T10:37:25.863Z,18.40
2018-04-18T10:42:22.220Z,19.30
2018-04-18T10:49:46.163Z,18.00
2018-04-18T10:52:14.233Z,20.10
2018-04-18T10:54:42.322Z,19.70
2018-04-18T10:57:10.654Z,18.80
2018-04-18T10:59:38.110Z,19.00
2018-04-18T11:02:05.497Z,18.60
2018-04-18T11:04:34.029Z,19.10
2018-04-18T11:07:01.409Z,20.60
2018-04-18T11:09:28.807Z,20.50
2018-04-18T11:11:56.953Z,21.00
2018-04-18T11:14:24.334Z,18.40
2018-04-18T11:16:52.425Z,18.40
2018-04-18T11:19:19.738Z,18.40
2018-04-18T11:26:43.972Z,17.60
2018-04-18T11:29:12.078Z,18.80
2018-04-18T11:31:39.596Z,18.60
2018-04-18T11:34:07.812Z,17.00
2018-04-18T11:36:35.949Z,18.00
2018-04-18T11:39:03.307Z,19.10
2018-04-18T11:41:31.446Z,17.70
2018-04-18T11:43:59.643Z,18.80
2018-04-18T11:46:27.880Z,18.20
2018-04-18T11:48:55.985Z,19.30
2018-04-18T11:53:51.747Z,20.10
2018-04-18T11:56:19.981Z,20.70
2018-04-18T11:58:47.318Z,20.50
2018-04-18T12:01:14.681Z,19.00
2018-04-18T12:06:11.269Z,21.00
2018-04-18T12:08:39.475Z,21.40
2018-04-18T12:11:06.900Z,21.00
2018-04-18T12:16:02.613Z,20.60
2018-04-18T12:23:26.569Z,20.20
2018-04-18T12:25:53.988Z,21.00
2018-04-18T12:28:21.551Z,20.20
2018-04-18T12:30:48.967Z,21.40
2018-04-18T12:33:17.116Z,21.80
2018-04-18T12:35:45.330Z,21.60
2018-04-18T12:38:13.515Z,20.80
2018-04-18T12:40:41.731Z,21.30
2018-04-18T12:43:09.107Z,21.70
2018-04-18T12:48:05.555Z,22.00
2018-04-18T12:50:32.934Z,21.10
2018-04-18T12:53:01.057Z,21.30
2018-04-18T12:57:56.751Z,21.80
2018-04-18T13:00:24.145Z,22.00
2018-04-18T13:02:51.541Z,21.60
2018-04-18T13:05:19.686Z,21.20
2018-04-18T13:07:47.851Z,21.30
2018-04-18T13:10:16.007Z,21.60
2018-04-18T13:12:44.114Z,21.60
2018-04-18T13:15:12.391Z,21.70
2018-04-18T13:17:39.831Z,21.50
2018-04-18T13:20:07.194Z,21.10
2018-04-18T13:22:34.590Z,20.10
2018-04-18T13:25:01.951Z,18.70
2018-04-18T13:27:29.345Z,19.40
2018-04-18T13:29:56.726Z,18.70
2018-04-18T13:34:53.190Z,18.10
2018-04-18T13:37:21.314Z,20.70
2018-04-18T13:39:48.692Z,21.90
2018-04-18T13:42:16.134Z,21.40
2018-04-18T13:44:45.103Z,21.80
2018-04-18T13:49:41.606Z,21.50
2018-04-18T13:52:09.855Z,22.30
2018-04-18T13:54:37.235Z,22.00
2018-04-18T13:57:05.457Z,22.20
2018-04-18T14:02:01.155Z,20.50
2018-04-18T14:04:28.683Z,20.10
2018-04-18T14:09:24.389Z,20.70
2018-04-18T14:11:52.478Z,20.70
2018-04-18T14:14:19.850Z,22.30
2018-04-18T14:16:48.018Z,21.80
2018-04-18T14:21:43.803Z,20.90
2018-04-18T14:24:11.161Z,20.70
2018-04-18T14:26:39.341Z,21.30
2018-04-18T14:31:35.877Z,23.40
2018-04-18T14:34:04.003Z,24.10
2018-04-18T14:36:31.501Z,24.40
2018-04-18T14:38:59.966Z,24.40
2018-04-18T14:43:55.780Z,21.70
2018-04-18T14:46:23.124Z,21.30
2018-04-18T14:48:51.233Z,21.10
2018-04-18T14:51:19.371Z,21.70
2018-04-18T14:53:46.766Z,21.30
2018-04-18T14:56:14.903Z,20.70
2018-04-18T15:01:10.639Z,22.70
2018-04-18T15:03:38.916Z,21.20
2018-04-18T15:08:44.652Z,21.60
2018-04-18T15:11:12.076Z,21.20
2018-04-18T15:13:39.481Z,22.10
2018-04-18T15:18:35.141Z,21.60
2018-04-18T15:21:03.383Z,22.90
2018-04-18T15:23:30.826Z,22.20
2018-04-18T15:28:30.385Z,21.80
2018-04-18T15:35:55.148Z,21.20
2018-04-18T15:38:22.519Z,21.40
2018-04-18T15:40:50.678Z,24.00
2018-04-18T15:45:46.316Z,24.30
2018-04-18T15:50:42.835Z,20.40
2018-04-18T15:53:10.990Z,20.80
2018-04-18T15:55:39.143Z,20.90
2018-04-18T15:58:06.519Z,22.30
2018-04-18T16:05:34.339Z,21.00
2018-04-18T16:08:01.906Z,20.70
2018-04-18T16:12:57.849Z,24.60
2018-04-18T16:15:25.400Z,22.40
2018-04-18T16:17:54.840Z,21.00
2018-04-18T16:20:22.243Z,21.80
2018-04-18T16:22:49.835Z,24.10
2018-04-18T16:25:18.127Z,22.10
2018-04-18T16:27:47.646Z,21.40
2018-04-18T16:30:28.644Z,23.60
2018-04-18T16:33:02.441Z,21.40
2018-04-18T16:35:29.974Z,21.60
2018-04-18T16:37:58.407Z,23.90
2018-04-18T16:40:28.334Z,25.50
2018-04-18T16:42:55.881Z,21.90
2018-04-18T16:45:25.146Z,22.20
2018-04-18T16:47:53.464Z,21.60
2018-04-18T16:50:22.555Z,21.70
2018-04-18T16:52:50.845Z,22.00
2018-04-18T16:55:22.905Z,22.10
2018-04-18T16:57:51.031Z,22.10
2018-04-18T17:00:18.558Z,24.30
2018-04-18T17:02:48.455Z,23.60
2018-04-18T17:05:16.869Z,26.10
2018-04-18T17:07:47.664Z,22.10
2018-04-18T17:10:19.565Z,22.70
2018-04-18T17:12:51.623Z,22.90
2018-04-18T17:15:22.839Z,23.40
2018-04-18T17:17:58.673Z,23.70
2018-04-18T17:20:31.016Z,23.20
2018-04-18T17:22:58.522Z,25.50
2018-04-18T17:25:28.635Z,23.80
2018-04-18T17:28:01.133Z,25.30
2018-04-18T17:30:28.604Z,23.70
2018-04-18T17:32:59.059Z,22.60
2018-04-18T17:35:27.254Z,23.90
2018-04-18T17:37:54.698Z,22.60
2018-04-18T17:40:22.928Z,22.70
2018-04-18T17:42:50.412Z,22.90
2018-04-18T17:45:17.927Z,23.50
2018-04-18T17:47:45.335Z,26.10
2018-04-18T17:50:13.798Z,23.70
2018-04-18T17:52:43.658Z,24.80
2018-04-18T17:55:13.672Z,23.20
2018-04-18T17:57:41.801Z,24.30
2018-04-18T18:00:12.337Z,25.40
2018-04-18T18:02:40.295Z,23.80
2018-04-18T18:05:07.774Z,23.80
2018-04-18T18:07:36.704Z,25.80
2018-04-18T18:10:04.280Z,25.80
2018-04-18T18:12:31.714Z,26.80
2018-04-18T18:14:59.974Z,26.50
2018-04-18T18:17:27.442Z,24.70
2018-04-18T18:19:55.710Z,24.30
2018-04-18T18:22:23.893Z,25.00
2018-04-18T18:24:54.448Z,25.00
2018-04-18T18:27:21.898Z,25.80
2018-04-18T18:29:49.511Z,25.80
2018-04-18T18:32:20.553Z,25.90
2018-04-18T18:34:48.716Z,27.20
2018-04-18T18:37:17.935Z,25.20
2018-04-18T18:39:46.087Z,27.90
2018-04-18T18:42:13.544Z,25.40
2018-04-18T18:44:40.939Z,25.80
2018-04-18T18:47:10.985Z,25.80
2018-04-18T18:49:38.395Z,26.50
2018-04-18T18:52:06.691Z,26.10
2018-04-18T18:54:36.574Z,27.40
2018-04-18T18:57:04.164Z,26.30
2018-04-18T18:59:35.094Z,26.70
2018-04-18T19:02:06.647Z,27.50
2018-04-18T19:04:36.134Z,28.30
2018-04-18T19:07:07.284Z,27.80
2018-04-18T19:09:38.287Z,27.00
2018-04-18T19:12:06.661Z,26.70
2018-04-18T19:14:35.240Z,28.00
2018-04-18T19:17:06.515Z,27.00
2018-04-18T19:19:33.927Z,28.10
2018-04-18T19:22:01.425Z,26.20
2018-04-18T19:24:31.868Z,26.30
2018-04-18T19:27:00.140Z,26.80
2018-04-18T19:29:30.973Z,27.60
2018-04-18T19:31:59.675Z,27.70
2018-04-18T19:34:29.046Z,28.40
2018-04-18T19:36:58.489Z,28.30
2018-04-18T19:39:27.652Z,28.20
2018-04-18T19:41:55.184Z,29.30
2018-04-18T19:44:22.674Z,28.20
2018-04-18T19:46:50.174Z,29.90
2018-04-18T19:49:18.517Z,28.10
2018-04-18T19:51:46.180Z,28.60
2018-04-18T19:54:13.703Z,28.80
2018-04-18T19:56:42.053Z,29.90
2018-04-18T19:59:12.375Z,32.50
2018-04-18T20:01:40.915Z,29.40
2018-04-18T20:04:08.363Z,28.40
2018-04-18T20:06:36.736Z,28.50
2018-04-18T20:09:06.064Z,29.40
2018-04-18T20:11:33.473Z,30.40
2018-04-18T20:14:01.849Z,29.90
2018-04-18T20:16:30.198Z,30.80
2018-04-18T20:18:59.994Z,30.20
2018-04-18T20:21:30.454Z,30.70
2018-04-18T20:23:57.936Z,30.40
2018-04-18T20:26:27.307Z,29.40
2018-04-18T20:28:55.695Z,32.70
2018-04-18T20:31:24.825Z,29.70
2018-04-18T20:33:52.235Z,34.00
2018-04-18T20:36:20.583Z,33.50
2018-04-18T20:38:48.187Z,32.70
2018-04-18T20:41:15.638Z,34.00
2018-04-18T20:43:43.071Z,33.40
2018-04-18T20:46:10.464Z,32.50
2018-04-18T20:48:37.874Z,33.10
2018-04-18T20:51:05.269Z,33.90
2018-04-18T20:53:32.656Z,31.40
2018-04-18T20:56:03.738Z,33.40
2018-04-18T20:58:32.021Z,33.20
2018-04-18T21:01:00.254Z,33.90
2018-04-18T21:03:31.077Z,33.70
2018-04-18T21:06:05.946Z,31.60
2018-04-18T21:08:36.395Z,31.20
2018-04-18T21:11:03.659Z,33.10
2018-04-18T21:13:30.916Z,30.40
2018-04-18T21:15:59.115Z,31.10
2018-04-18T21:18:26.579Z,31.30
2018-04-18T21:20:54.718Z,32.80
2018-04-18T21:23:22.156Z,35.10
2018-04-18T21:25:50.446Z,34.10
2018-04-18T21:28:18.731Z,35.00
2018-04-18T21:30:47.032Z,34.30
2018-04-18T21:33:16.864Z,32.70
2018-04-18T21:35:45.023Z,32.20
2018-04-18T21:38:12.587Z,32.60
2018-04-18T21:40:40.687Z,32.90
2018-04-18T21:43:08.131Z,34.40
2018-04-18T21:45:35.476Z,34.70
2018-04-18T21:48:02.790Z,34.80
2018-04-18T21:50:30.078Z,33.40
2018-04-18T21:52:58.226Z,34.20
2018-04-18T21:55:26.381Z,34.30
2018-04-18T21:57:53.898Z,33.40
2018-04-18T22:00:23.100Z,34.40
2018-04-18T22:02:51.346Z,34.60
2018-04-18T22:05:18.751Z,34.10
2018-04-18T22:07:46.960Z,35.10
2018-04-18T22:10:14.479Z,33.70
2018-04-18T22:12:41.855Z,34.70
2018-04-18T22:15:09.257Z,35.40
2018-04-18T22:17:37.384Z,33.80
2018-04-18T22:25:02.079Z,34.10
2018-04-18T22:27:30.338Z,34.40
2018-04-18T22:32:26.823Z,34.30
2018-04-18T22:34:54.821Z,32.40
2018-04-18T22:37:22.405Z,34.70
2018-04-18T22:39:49.959Z,34.00
2018-04-18T22:42:18.097Z,32.20
2018-04-18T22:52:10.382Z,34.80
2018-04-18T22:54:37.777Z,34.00
2018-04-18T22:57:05.120Z,35.70
2018-04-18T22:59:32.577Z,35.40
2018-04-18T23:02:00.723Z,35.00
2018-04-18T23:04:28.131Z,34.70
2018-04-18T23:06:55.455Z,35.40
2018-04-18T23:16:48.398Z,36.20
2018-04-18T23:19:16.058Z,33.50
2018-04-18T23:21:44.150Z,36.20
2018-04-18T23:24:11.562Z,35.40
2018-04-18T23:26:38.899Z,36.30
2018-04-18T23:29:07.004Z,36.40
2018-04-18T23:31:34.376Z,36.40
2018-04-18T23:34:01.775Z,36.40
2018-04-18T23:36:29.962Z,37.10
2018-04-18T23:41:26.355Z,36.60
2018-04-18T23:43:53.736Z,35.90
2018-04-18T23:46:21.095Z,35.10
2018-04-18T23:48:49.179Z,35.30
2018-04-18T23:53:45.697Z,35.50
2018-04-18T23:56:13.870Z,34.60
2018-04-18T23:58:41.252Z,36.80
